Time;durP1;ratioP1;P1;durP2;ratioP2;P2;SDS_P1;SDS_P2;PMS_P1;PMS_P2;Temp;Humidity;BMP_temperature;BMP_pressure;BME280_temperature;BME280_humidity;BME280_pressure;Samples;Min_cycle;Max_cycle;Signal;HPM_P1;HPM_P2
2021/08/15 00:01:37;;;;;;;3.78;1.10;;;17.50;99.90;;;;;;5072421;28;20362;-68
2021/08/15 00:04:03;;;;;;;3.65;1.50;;;17.50;99.90;;;;;;5072614;28;20389;-68
2021/08/15 00:06:29;;;;;;;5.07;1.50;;;17.50;99.90;;;;;;5071597;28;20036;-67
2021/08/15 00:08:54;;;;;;;6.75;1.30;;;17.50;99.90;;;;;;5072012;28;20112;-68
2021/08/15 00:11:20;;;;;;;2.55;1.00;;;17.50;99.90;;;;;;5069948;28;20128;-68
2021/08/15 00:13:45;;;;;;;5.68;1.50;;;17.50;99.90;;;;;;5070234;28;20524;-68
2021/08/15 00:16:11;;;;;;;4.63;1.05;;;17.60;99.90;;;;;;5067698;28;20038;-67
2021/08/15 00:18:37;;;;;;;5.50;1.77;;;17.60;99.90;;;;;;5071725;28;20032;-68
2021/08/15 00:21:03;;;;;;;4.00;1.48;;;17.70;99.90;;;;;;5070493;28;20068;-68
2021/08/15 00:23:29;;;;;;;3.85;1.77;;;17.70;99.90;;;;;;5071718;28;20031;-68
2021/08/15 00:25:54;;;;;;;3.13;1.70;;;17.70;99.90;;;;;;5071921;28;20115;-68
2021/08/15 00:28:20;;;;;;;6.60;1.50;;;17.70;99.90;;;;;;5070976;28;20059;-68
2021/08/15 00:30:46;;;;;;;4.22;1.40;;;17.70;99.90;;;;;;5071500;28;20123;-67
2021/08/15 00:33:11;;;;;;;4.05;1.73;;;17.70;99.90;;;;;;5070392;28;20044;-67
2021/08/15 00:35:37;;;;;;;5.95;1.65;;;17.70;99.90;;;;;;5071363;28;20433;-68
2021/08/15 00:38:03;;;;;;;8.15;1.50;;;17.70;99.90;;;;;;5070669;28;20029;-67
2021/08/15 00:40:29;;;;;;;3.70;1.65;;;17.60;99.90;;;;;;5071459;28;20047;-68
2021/08/15 00:42:54;;;;;;;4.60;1.88;;;17.50;99.90;;;;;;5071173;28;20404;-68
2021/08/15 00:45:20;;;;;;;3.42;1.48;;;17.40;99.90;;;;;;5070069;28;20055;-68
2021/08/15 00:47:45;;;;;;;4.35;2.08;;;17.40;99.90;;;;;;5070899;28;20040;-68
2021/08/15 00:50:11;;;;;;;3.80;1.65;;;17.30;99.90;;;;;;5071294;28;20459;-68
2021/08/15 00:52:37;;;;;;;7.82;1.90;;;17.30;99.90;;;;;;5069960;28;20072;-68
2021/08/15 00:55:06;;;;;;;3.63;2.25;;;17.20;99.90;;;;;;5071289;28;20098;-68
2021/08/15 00:57:34;;;;;;;6.00;1.90;;;17.30;99.90;;;;;;5070785;28;20040;-68
2021/08/15 01:00:06;;;;;;;7.15;2.17;;;17.20;99.90;;;;;;5071408;28;20036;-67
2021/08/15 01:02:38;;;;;;;4.90;2.15;;;17.10;99.90;;;;;;5067335;28;20028;-68
2021/08/15 01:05:05;;;;;;;7.70;1.85;;;17.10;99.90;;;;;;5070223;28;20056;-68
2021/08/15 01:07:30;;;;;;;5.25;1.60;;;17.10;99.90;;;;;;5069550;28;20512;-68
2021/08/15 01:09:57;;;;;;;5.18;1.90;;;17.10;99.90;;;;;;5070485;28;20034;-67
2021/08/15 01:12:26;;;;;;;5.47;1.90;;;17.10;99.90;;;;;;5071220;28;20032;-67
2021/08/15 01:14:53;;;;;;;6.75;2.20;;;17.10;99.90;;;;;;5070693;28;20110;-69
2021/08/15 01:17:19;;;;;;;4.80;1.92;;;17.10;99.90;;;;;;5069057;28;20183;-67
2021/08/15 01:19:45;;;;;;;4.70;2.20;;;17.00;99.90;;;;;;5070356;28;20029;-68
2021/08/15 01:22:10;;;;;;;3.13;1.60;;;17.00;99.90;;;;;;5069637;28;20122;-68
2021/08/15 01:24:36;;;;;;;6.93;1.92;;;17.00;99.90;;;;;;5068840;28;20105;-67
2021/08/15 01:27:04;;;;;;;4.68;1.67;;;16.90;99.90;;;;;;5070315;28;20041;-68
2021/08/15 01:29:31;;;;;;;5.72;2.03;;;16.90;99.90;;;;;;5070888;28;20055;-68
2021/08/15 01:31:56;;;;;;;11.57;2.42;;;16.90;99.90;;;;;;5070662;28;20082;-68
2021/08/15 01:34:22;;;;;;;7.35;2.65;;;16.90;99.90;;;;;;5070331;28;20067;-68
2021/08/15 01:36:47;;;;;;;8.32;2.35;;;16.90;99.90;;;;;;5070059;28;20572;-68
2021/08/15 01:39:13;;;;;;;4.28;2.03;;;16.90;99.90;;;;;;5070375;28;20029;-67
2021/08/15 01:41:39;;;;;;;5.82;2.08;;;16.90;99.90;;;;;;5070102;28;20037;-68
2021/08/15 01:44:04;;;;;;;4.07;2.17;;;16.90;99.90;;;;;;5069841;28;20127;-68
2021/08/15 01:46:32;;;;;;;6.07;2.03;;;17.00;99.90;;;;;;5069986;28;20039;-68
2021/08/15 01:48:59;;;;;;;6.00;2.05;;;16.90;99.90;;;;;;5068367;28;20182;-68
2021/08/15 01:51:25;;;;;;;4.90;1.80;;;16.90;99.90;;;;;;5070433;28;20595;-68
2021/08/15 01:53:53;;;;;;;4.93;2.22;;;16.90;99.90;;;;;;5069789;28;20025;-68
2021/08/15 01:56:20;;;;;;;4.22;2.10;;;16.90;99.90;;;;;;5069731;28;20554;-68
2021/08/15 01:58:46;;;;;;;12.02;2.70;;;16.90;99.90;;;;;;5068579;28;20561;-68
2021/08/15 02:01:16;;;;;;;7.63;2.30;;;17.00;99.90;;;;;;5069862;28;20128;-68
2021/08/15 02:03:42;;;;;;;14.73;2.65;;;16.90;99.90;;;;;;5069859;28;20535;-68
2021/08/15 02:06:08;;;;;;;6.53;2.38;;;16.90;99.90;;;;;;5069540;28;20116;-68
2021/08/15 02:08:33;;;;;;;7.82;2.92;;;16.90;99.90;;;;;;5069104;28;20115;-68
2021/08/15 02:10:59;;;;;;;8.02;2.42;;;16.80;99.90;;;;;;5067705;28;20040;-68
2021/08/15 02:13:25;;;;;;;11.68;3.15;;;16.80;99.90;;;;;;5069361;28;20089;-68
2021/08/15 02:15:50;;;;;;;7.85;2.63;;;16.80;99.90;;;;;;5067835;28;20043;-68
2021/08/15 02:18:16;;;;;;;9.20;2.97;;;16.80;99.90;;;;;;5069615;28;20058;-68
2021/08/15 02:20:41;;;;;;;4.43;2.17;;;16.80;99.90;;;;;;5068096;28;20036;-68
2021/08/15 02:23:07;;;;;;;6.80;2.50;;;16.70;99.90;;;;;;5069234;28;20098;-67
2021/08/15 02:25:33;;;;;;;7.78;3.17;;;16.70;99.90;;;;;;5069754;28;20032;-68
2021/08/15 02:27:58;;;;;;;9.13;2.63;;;16.70;99.90;;;;;;5068894;28;20563;-68
2021/08/15 02:30:25;;;;;;;5.70;2.55;;;16.60;99.90;;;;;;5069613;28;20110;-68
2021/08/15 02:32:52;;;;;;;6.55;2.25;;;16.60;99.90;;;;;;5069005;28;20078;-69
2021/08/15 02:35:18;;;;;;;10.27;2.88;;;16.60;99.90;;;;;;5070743;28;20041;-68
2021/08/15 02:37:47;;;;;;;6.43;2.50;;;16.60;99.90;;;;;;5067777;28;20082;-68
2021/08/15 02:40:14;;;;;;;6.05;3.13;;;16.60;99.90;;;;;;5069325;28;20044;-68
2021/08/15 02:42:42;;;;;;;8.98;3.60;;;16.60;99.90;;;;;;5069051;28;20047;-68
2021/08/15 02:45:09;;;;;;;5.85;2.80;;;16.60;99.90;;;;;;5069492;28;20048;-68
2021/08/15 02:47:35;;;;;;;6.68;2.85;;;16.50;99.90;;;;;;5069020;28;20047;-67
2021/08/15 02:50:01;;;;;;;6.85;3.15;;;16.50;99.90;;;;;;5069031;28;20037;-68
2021/08/15 02:52:26;;;;;;;6.75;2.97;;;16.50;99.90;;;;;;5069137;28;20040;-68
2021/08/15 02:54:52;;;;;;;6.75;2.88;;;16.50;99.90;;;;;;5069940;28;20040;-67
2021/08/15 02:57:18;;;;;;;5.80;2.50;;;16.50;99.90;;;;;;5068026;28;20028;-68
2021/08/15 02:59:44;;;;;;;8.05;3.03;;;16.40;99.90;;;;;;5067272;28;20050;-68
2021/08/15 03:02:10;;;;;;;8.60;3.08;;;16.40;99.90;;;;;;5068905;28;20688;-68
2021/08/15 03:04:36;;;;;;;9.63;3.75;;;16.40;99.90;;;;;;5069294;28;20122;-67
2021/08/15 03:07:02;;;;;;;8.30;2.60;;;16.30;99.90;;;;;;5064676;28;20493;-68
2021/08/15 03:09:28;;;;;;;7.18;2.85;;;16.30;99.90;;;;;;5069670;28;20515;-68
2021/08/15 03:11:53;;;;;;;11.35;3.45;;;16.30;99.90;;;;;;5069453;28;20049;-68
2021/08/15 03:14:19;;;;;;;7.13;2.80;;;16.30;99.90;;;;;;5067834;28;20029;-68
2021/08/15 03:16:45;;;;;;;7.65;3.00;;;16.30;99.90;;;;;;5069512;28;20788;-68
2021/08/15 03:19:10;;;;;;;6.10;2.67;;;16.30;99.90;;;;;;5069089;28;20033;-68
2021/08/15 03:21:36;;;;;;;7.55;2.53;;;16.30;99.90;;;;;;5067753;28;20090;-68
2021/08/15 03:24:03;;;;;;;6.45;2.78;;;16.30;99.90;;;;;;5068798;28;20121;-68
2021/08/15 03:26:28;;;;;;;9.63;3.63;;;16.30;99.90;;;;;;5068570;28;20377;-68
2021/08/15 03:28:54;;;;;;;11.90;3.25;;;16.30;99.90;;;;;;5068594;28;20078;-68
2021/08/15 03:31:19;;;;;;;6.05;2.72;;;16.30;99.90;;;;;;5069907;28;20028;-68
2021/08/15 03:33:45;;;;;;;9.93;3.05;;;16.30;99.90;;;;;;5073490;28;20044;-68
2021/08/15 03:36:11;;;;;;;9.45;3.80;;;16.30;99.90;;;;;;5073746;28;20921;-68
2021/08/15 03:38:37;;;;;;;8.00;2.70;;;16.20;99.90;;;;;;5093610;28;20080;-68
2021/08/15 03:41:03;;;;;;;6.13;2.80;;;16.30;99.90;;;;;;5093372;28;20442;-68
2021/08/15 03:43:29;;;;;;;6.53;3.17;;;16.20;99.90;;;;;;5092939;28;20051;-68
2021/08/15 03:45:54;;;;;;;4.90;2.47;;;16.20;99.90;;;;;;5092911;28;20036;-68
2021/08/15 03:48:20;;;;;;;8.18;2.92;;;16.20;99.90;;;;;;5092457;28;20182;-68
2021/08/15 03:50:46;;;;;;;8.38;3.03;;;16.20;99.90;;;;;;5093028;28;20062;-68
2021/08/15 03:53:11;;;;;;;5.47;2.47;;;16.30;99.90;;;;;;5082808;28;20039;-68
2021/08/15 03:55:37;;;;;;;11.50;3.15;;;16.30;99.90;;;;;;5093040;28;20032;-68
2021/08/15 03:58:05;;;;;;;6.57;3.10;;;16.30;99.90;;;;;;5093061;28;20590;-68
2021/08/15 04:00:31;;;;;;;7.43;2.60;;;16.30;99.90;;;;;;5088704;28;20396;-67
2021/08/15 04:02:56;;;;;;;5.97;2.47;;;16.30;99.90;;;;;;5083209;28;20044;-68
2021/08/15 04:05:22;;;;;;;8.63;2.50;;;16.30;99.90;;;;;;5082304;28;20040;-68
2021/08/15 04:07:48;;;;;;;6.03;2.60;;;16.30;99.90;;;;;;5092370;28;20038;-68
2021/08/15 04:10:13;;;;;;;6.80;3.25;;;16.30;99.90;;;;;;5092254;28;20081;-68
2021/08/15 04:12:39;;;;;;;6.68;3.25;;;16.30;99.90;;;;;;5092956;28;20032;-67
2021/08/15 04:15:05;;;;;;;10.30;3.10;;;16.30;99.90;;;;;;5093249;28;20051;-68
2021/08/15 04:17:30;;;;;;;6.13;3.00;;;16.30;99.90;;;;;;5091915;28;20685;-68
2021/08/15 04:19:56;;;;;;;9.35;3.30;;;16.30;99.90;;;;;;5083337;28;20039;-68
2021/08/15 04:22:22;;;;;;;7.80;3.42;;;16.30;99.90;;;;;;5082196;28;20032;-69
2021/08/15 04:24:47;;;;;;;5.90;3.00;;;16.30;99.90;;;;;;5092840;28;20028;-68
2021/08/15 04:27:13;;;;;;;9.50;2.83;;;16.30;99.90;;;;;;5092189;28;20067;-72
2021/08/15 04:29:39;;;;;;;11.00;3.38;;;16.30;99.90;;;;;;5092555;28;20024;-68
2021/08/15 04:32:08;;;;;;;6.10;2.60;;;16.30;99.90;;;;;;5092108;28;20036;-68
2021/08/15 04:34:34;;;;;;;7.10;2.97;;;16.30;99.90;;;;;;5081955;28;20032;-68
2021/08/15 04:37:00;;;;;;;8.32;3.35;;;16.40;99.90;;;;;;5091735;28;20028;-68
2021/08/15 04:39:26;;;;;;;9.23;3.10;;;16.40;99.90;;;;;;5091615;28;20048;-68
2021/08/15 04:41:52;;;;;;;7.57;3.20;;;16.40;99.90;;;;;;5091659;28;20085;-68
2021/08/15 04:44:17;;;;;;;8.05;3.33;;;16.40;99.90;;;;;;5090940;28;20047;-69
2021/08/15 04:46:43;;;;;;;6.68;3.00;;;16.40;99.90;;;;;;5091168;28;20032;-68
2021/08/15 04:49:08;;;;;;;5.05;2.78;;;16.40;99.90;;;;;;5092028;28;20166;-68
2021/08/15 04:51:34;;;;;;;5.40;2.55;;;16.40;99.90;;;;;;5091022;28;20028;-68
2021/08/15 04:53:59;;;;;;;11.00;3.33;;;16.40;99.90;;;;;;5091795;28;20024;-68
2021/08/15 04:56:25;;;;;;;7.03;2.90;;;16.40;99.90;;;;;;5086659;28;20024;-69
2021/08/15 04:58:51;;;;;;;8.70;2.90;;;16.40;99.90;;;;;;5092015;28;20576;-67
2021/08/15 05:01:16;;;;;;;5.00;2.50;;;16.40;99.90;;;;;;5091408;28;20044;-68
2021/08/15 05:03:42;;;;;;;11.00;3.40;;;16.40;99.90;;;;;;5088707;28;20047;-68
2021/08/15 05:06:07;;;;;;;8.15;2.88;;;16.30;99.90;;;;;;5091032;28;20123;-69
2021/08/15 05:08:33;;;;;;;7.13;2.67;;;16.40;99.90;;;;;;5090605;28;20036;-68
2021/08/15 05:10:58;;;;;;;9.40;3.05;;;16.40;99.90;;;;;;5091118;28;20484;-68
2021/08/15 05:13:28;;;;;;;10.38;2.83;;;16.40;99.90;;;;;;5086578;28;20114;-69
2021/08/15 05:15:54;;;;;;;6.47;2.83;;;16.40;99.90;;;;;;5080399;28;20484;-68
2021/08/15 05:18:20;;;;;;;7.90;2.90;;;16.50;99.90;;;;;;5090921;28;20055;-68
2021/08/15 05:20:46;;;;;;;8.25;2.83;;;16.50;99.90;;;;;;5090205;28;20067;-69
2021/08/15 05:23:12;;;;;;;8.45;2.35;;;16.50;99.90;;;;;;5080858;28;20040;-68
2021/08/15 05:25:38;;;;;;;10.13;3.17;;;16.50;99.90;;;;;;5090548;28;20036;-68
2021/08/15 05:28:04;;;;;;;6.00;3.05;;;16.60;99.90;;;;;;5080226;28;20036;-68
2021/08/15 05:30:31;;;;;;;4.68;2.30;;;16.70;99.90;;;;;;5089705;28;20496;-70
2021/08/15 05:32:57;;;;;;;5.13;2.67;;;16.70;99.90;;;;;;5090496;28;20028;-68
2021/08/15 05:35:23;;;;;;;6.05;2.50;;;16.70;99.90;;;;;;5086508;28;20052;-68
2021/08/15 05:37:48;;;;;;;9.60;2.88;;;16.80;99.90;;;;;;5089911;28;20107;-68
2021/08/15 05:40:14;;;;;;;7.55;2.40;;;16.80;99.90;;;;;;5090131;28;20028;-68
2021/08/15 05:42:40;;;;;;;9.32;3.33;;;16.90;99.90;;;;;;5089933;28;20388;-68
2021/08/15 05:45:06;;;;;;;5.65;2.40;;;17.00;99.90;;;;;;5080694;28;20032;-67
2021/08/15 05:47:32;;;;;;;10.35;3.78;;;17.10;99.90;;;;;;5089767;28;20036;-68
2021/08/15 05:49:57;;;;;;;5.47;2.40;;;17.10;99.90;;;;;;5089884;28;20031;-68
2021/08/15 05:52:25;;;;;;;8.60;2.50;;;17.10;99.90;;;;;;5090375;28;20092;-68
2021/08/15 05:54:51;;;;;;;10.55;3.17;;;17.20;99.90;;;;;;5089074;28;20028;-68
2021/08/15 05:57:17;;;;;;;8.15;2.35;;;17.30;99.90;;;;;;5089755;28;20166;-68
2021/08/15 05:59:42;;;;;;;8.27;2.47;;;17.30;99.90;;;;;;5089301;28;20195;-68
2021/08/15 06:02:09;;;;;;;5.63;2.58;;;17.40;99.90;;;;;;5089935;28;20032;-68
2021/08/15 06:04:34;;;;;;;5.18;2.85;;;17.40;99.90;;;;;;5089845;28;20047;-68
2021/08/15 06:07:00;;;;;;;8.98;2.70;;;17.40;99.90;;;;;;5089179;28;20032;-68
2021/08/15 06:09:26;;;;;;;6.05;2.78;;;17.40;99.90;;;;;;5089838;28;20032;-68
2021/08/15 06:11:51;;;;;;;5.88;2.03;;;17.50;99.90;;;;;;5080726;28;20032;-68
2021/08/15 06:14:17;;;;;;;7.82;2.70;;;17.60;99.90;;;;;;5088774;28;20376;-68
2021/08/15 06:16:43;;;;;;;5.45;2.33;;;17.60;99.90;;;;;;5079621;28;20112;-68
2021/08/15 06:19:08;;;;;;;9.73;2.65;;;17.70;99.90;;;;;;5089171;28;20032;-69
2021/08/15 06:21:34;;;;;;;12.98;3.20;;;17.70;99.90;;;;;;5079912;28;20119;-68
2021/08/15 06:24:00;;;;;;;7.93;2.75;;;17.80;99.90;;;;;;5079707;28;20047;-68
2021/08/15 06:26:25;;;;;;;6.63;2.28;;;17.90;99.90;;;;;;5089312;28;20460;-68
2021/08/15 06:28:51;;;;;;;10.05;2.45;;;17.90;99.90;;;;;;5089198;28;20090;-69
2021/08/15 06:31:18;;;;;;;7.70;2.55;;;18.10;99.90;;;;;;5089296;28;20036;-69
2021/08/15 06:33:44;;;;;;;5.90;2.28;;;18.20;99.90;;;;;;5075873;28;20491;-69
2021/08/15 06:36:09;;;;;;;9.52;2.55;;;18.20;99.90;;;;;;5088301;28;20040;-69
2021/08/15 06:38:35;;;;;;;9.30;2.50;;;18.20;99.90;;;;;;5079428;28;20548;-68
2021/08/15 06:41:01;;;;;;;5.40;2.75;;;18.20;99.90;;;;;;5079262;28;20036;-69
2021/08/15 06:43:26;;;;;;;7.45;3.13;;;18.30;99.90;;;;;;5088110;28;20379;-68
2021/08/15 06:45:52;;;;;;;13.45;2.85;;;18.30;99.90;;;;;;5088999;28;20032;-68
2021/08/15 06:48:17;;;;;;;7.50;2.25;;;18.50;99.90;;;;;;5088447;28;20054;-68
2021/08/15 06:50:43;;;;;;;7.45;2.67;;;18.50;99.90;;;;;;5089277;28;20058;-68
2021/08/15 06:53:09;;;;;;;5.32;2.53;;;18.50;99.90;;;;;;5078670;28;20088;-68
2021/08/15 06:55:34;;;;;;;9.57;2.95;;;18.40;99.90;;;;;;5088699;28;20662;-68
2021/08/15 06:58:00;;;;;;;8.07;2.33;;;18.50;99.90;;;;;;5088148;28;20036;-68
2021/08/15 07:00:26;;;;;;;10.32;2.53;;;18.50;99.90;;;;;;5077833;28;20487;-69
2021/08/15 07:02:51;;;;;;;7.40;2.60;;;19.30;99.90;;;;;;5086088;28;20031;-69
2021/08/15 07:05:19;;;;;;;11.27;3.03;;;19.90;99.90;;;;;;5073824;28;20124;-68
2021/08/15 07:07:45;;;;;;;6.03;2.50;;;20.20;99.90;;;;;;5074223;28;20067;-68
2021/08/15 07:10:11;;;;;;;8.90;2.65;;;20.20;99.90;;;;;;5077334;28;20491;-69
2021/08/15 07:12:36;;;;;;;7.32;2.50;;;20.20;99.90;;;;;;5077821;28;20054;-69
2021/08/15 07:15:03;;;;;;;6.57;2.55;;;20.10;99.90;;;;;;5078329;28;20103;-68
2021/08/15 07:17:28;;;;;;;6.93;2.58;;;20.40;99.90;;;;;;5086597;28;20093;-69
2021/08/15 07:19:54;;;;;;;7.88;2.63;;;20.60;99.90;;;;;;5087374;28;20024;-67
2021/08/15 07:22:20;;;;;;;8.60;2.78;;;21.00;99.90;;;;;;5071694;28;20055;-68
2021/08/15 07:24:45;;;;;;;6.22;2.63;;;22.00;99.90;;;;;;5087615;28;20031;-68
2021/08/15 07:27:11;;;;;;;5.10;2.60;;;23.20;99.90;;;;;;5086178;28;20048;-68
2021/08/15 07:29:36;;;;;;;9.85;2.38;;;24.10;99.90;;;;;;5072890;28;20028;-69
2021/08/15 07:32:02;;;;;;;7.57;2.60;;;24.50;99.90;;;;;;5087513;28;20093;-68
2021/08/15 07:34:28;;;;;;;7.47;2.53;;;25.20;99.90;;;;;;5086960;28;20032;-68
2021/08/15 07:36:54;;;;;;;7.63;3.22;;;25.90;99.90;;;;;;5087293;28;20034;-68
2021/08/15 07:39:19;;;;;;;7.53;3.15;;;26.60;99.90;;;;;;5086597;28;20055;-69
2021/08/15 07:41:45;;;;;;;9.00;3.70;;;27.20;99.90;;;;;;5087210;28;20036;-68
2021/08/15 07:44:10;;;;;;;11.20;3.92;;;27.50;99.90;;;;;;5087224;28;20051;-68
2021/08/15 07:46:36;;;;;;;9.43;4.30;;;27.80;99.90;;;;;;5086586;28;20039;-68
2021/08/15 07:49:02;;;;;;;6.63;3.10;;;28.20;99.90;;;;;;5087404;28;20547;-68
2021/08/15 07:51:30;;;;;;;9.40;3.72;;;28.30;99.70;;;;;;5086636;28;20036;-68
2021/08/15 07:53:57;;;;;;;10.20;3.92;;;27.60;99.30;;;;;;5087780;28;20479;-68
2021/08/15 07:56:23;;;;;;;10.02;3.85;;;26.80;99.90;;;;;;5086625;28;20120;-67
2021/08/15 07:58:48;;;;;;;9.10;3.05;;;25.90;99.90;;;;;;5087611;28;20118;-68
2021/08/15 08:01:16;;;;;;;7.90;3.42;;;24.90;99.90;;;;;;5077556;28;20089;-68
2021/08/15 08:03:41;;;;;;;9.73;2.88;;;24.60;99.90;;;;;;5087294;28;20040;-68
2021/08/15 08:06:07;;;;;;;10.15;2.70;;;24.40;99.90;;;;;;5075083;28;20035;-68
2021/08/15 08:08:33;;;;;;;8.32;3.22;;;24.20;99.90;;;;;;5083202;28;20047;-69
2021/08/15 08:10:58;;;;;;;7.60;2.33;;;24.20;99.90;;;;;;5084700;28;20124;-68
2021/08/15 08:13:24;;;;;;;7.45;2.15;;;24.00;99.90;;;;;;5083649;28;20028;-68
2021/08/15 08:15:51;;;;;;;6.43;2.33;;;23.90;99.90;;;;;;5084202;28;20036;-68
2021/08/15 08:18:16;;;;;;;11.75;3.13;;;23.80;99.90;;;;;;5086687;28;20067;-68
2021/08/15 08:20:42;;;;;;;6.47;2.25;;;23.80;99.90;;;;;;5087119;28;20028;-68
2021/08/15 08:23:11;;;;;;;7.38;2.30;;;23.80;99.90;;;;;;5087820;28;20498;-68
2021/08/15 08:25:37;;;;;;;6.13;2.38;;;23.80;99.90;;;;;;5073904;28;20104;-68
2021/08/15 08:28:04;;;;;;;7.78;2.40;;;23.70;99.90;;;;;;5088055;28;20036;-68
2021/08/15 08:30:30;;;;;;;9.40;2.67;;;23.80;99.90;;;;;;5087692;28;20040;-68
2021/08/15 08:32:56;;;;;;;13.70;2.70;;;23.90;99.90;;;;;;5088174;28;20032;-68
2021/08/15 08:35:22;;;;;;;5.70;2.38;;;24.00;99.90;;;;;;5088669;28;20040;-67
2021/08/15 08:37:47;;;;;;;10.10;2.58;;;24.00;99.90;;;;;;5076655;28;20040;-68
2021/08/15 08:40:14;;;;;;;6.03;1.95;;;24.00;99.90;;;;;;5088021;28;20036;-67
2021/08/15 08:42:45;;;;;;;19.02;2.50;;;24.00;99.90;;;;;;5087025;28;20032;-67
2021/08/15 08:45:13;;;;;;;9.50;2.70;;;24.00;99.90;;;;;;5087993;28;20399;-68
2021/08/15 08:47:39;;;;;;;8.57;2.03;;;24.10;99.90;;;;;;5076201;28;20047;-68
2021/08/15 08:50:05;;;;;;;8.55;2.50;;;24.10;99.90;;;;;;5077899;28;20028;-68
2021/08/15 08:52:31;;;;;;;8.70;2.40;;;24.10;99.90;;;;;;5074458;28;20674;-69
2021/08/15 08:54:58;;;;;;;7.90;2.17;;;24.20;99.90;;;;;;5087518;28;20539;-68
2021/08/15 08:57:25;;;;;;;15.50;3.03;;;24.30;99.90;;;;;;5075181;28;20036;-68
2021/08/15 08:59:51;;;;;;;7.68;2.55;;;24.20;99.90;;;;;;5085490;28;20063;-68
2021/08/15 09:02:17;;;;;;;9.85;2.53;;;24.20;99.90;;;;;;5084983;28;20492;-67
2021/08/15 09:04:43;;;;;;;8.98;2.88;;;24.30;99.90;;;;;;5084578;28;20492;-68
2021/08/15 09:07:13;;;;;;;6.68;2.60;;;24.40;99.90;;;;;;5087039;28;20024;-67
2021/08/15 09:09:39;;;;;;;11.38;2.90;;;24.40;99.90;;;;;;5085907;28;20020;-68
2021/08/15 09:12:06;;;;;;;8.48;2.55;;;24.50;99.90;;;;;;5073580;28;20034;-68
2021/08/15 09:14:33;;;;;;;5.60;2.15;;;24.50;99.90;;;;;;5075147;28;20123;-68
2021/08/15 09:17:07;;;;;;;10.57;2.70;;;24.60;99.90;;;;;;5067081;28;20025;-66
2021/08/15 09:19:46;;;;;;;11.45;3.53;;;24.50;99.90;;;;;;5066863;28;20459;-67
2021/08/15 09:22:14;;;;;;;7.22;2.28;;;24.60;99.90;;;;;;5065721;28;20055;-66
2021/08/15 09:25:09;;;;;;;8.05;2.63;;;24.50;99.90;;;;;;5064501;28;20025;-66
2021/08/15 09:27:55;;;;;;;9.95;2.95;;;24.50;99.90;;;;;;5063845;28;20055;-66
2021/08/15 09:30:26;;;;;;;7.25;1.80;;;24.50;99.90;;;;;;5064073;28;20032;-66
2021/08/15 09:32:56;;;;;;;6.97;2.35;;;24.60;99.90;;;;;;5068869;28;20547;-66
2021/08/15 09:35:23;;;;;;;;;;;24.60;99.90;;;;;;5063065;28;20032;-66
2021/08/15 09:38:03;;;;;;;15.95;2.70;;;24.60;99.90;;;;;;5068834;28;19916;-66
2021/08/15 09:40:38;;;;;;;6.90;2.60;;;24.70;99.90;;;;;;5066168;28;20068;-66
2021/08/15 09:43:07;;;;;;;7.13;2.35;;;24.80;99.90;;;;;;5068938;28;20094;-66
2021/08/15 09:45:38;;;;;;;5.53;1.92;;;24.60;99.90;;;;;;5067517;28;20029;-66
2021/08/15 09:48:16;;;;;;;6.55;2.08;;;24.70;99.90;;;;;;5068298;28;20102;-66
2021/08/15 09:50:42;;;;;;;6.13;2.15;;;24.80;99.90;;;;;;5064833;28;20070;-66
2021/08/15 09:53:25;;;;;;;8.40;2.15;;;24.70;99.90;;;;;;5068762;28;20488;-65
2021/08/15 09:55:51;;;;;;;9.98;2.45;;;24.80;99.90;;;;;;5065831;28;20158;-66
2021/08/15 09:58:17;;;;;;;7.47;2.05;;;24.90;99.90;;;;;;5068842;28;20036;-66
2021/08/15 10:00:43;;;;;;;10.63;2.30;;;24.80;99.90;;;;;;5066059;28;20033;-69
2021/08/15 10:03:09;;;;;;;8.07;2.10;;;24.90;99.90;;;;;;5068549;28;20639;-66
2021/08/15 10:05:35;;;;;;;7.13;1.52;;;24.90;99.90;;;;;;5068544;28;20511;-66
2021/08/15 10:08:02;;;;;;;5.47;1.48;;;25.10;99.90;;;;;;5067821;28;20025;-66
2021/08/15 10:10:28;;;;;;;14.10;2.72;;;25.10;99.90;;;;;;5068408;28;20062;-66
2021/08/15 10:12:53;;;;;;;12.25;2.92;;;25.20;99.90;;;;;;5066198;28;20025;-67
2021/08/15 10:15:19;;;;;;;5.07;1.88;;;25.20;99.90;;;;;;5065610;28;20035;-67
2021/08/15 10:17:49;;;;;;;4.00;1.40;;;25.30;99.90;;;;;;5067708;28;20288;-68
2021/08/15 10:20:21;;;;;;;7.57;1.98;;;25.40;99.50;;;;;;5088059;28;20404;-67
2021/08/15 10:22:49;;;;;;;8.07;2.30;;;25.40;99.90;;;;;;5088418;28;20028;-67
2021/08/15 10:25:32;;;;;;;5.32;2.25;;;25.40;99.90;;;;;;5088016;28;20074;-67
2021/08/15 10:27:58;;;;;;;5.50;1.70;;;25.30;99.90;;;;;;5087224;28;20036;-69
2021/08/15 10:30:24;;;;;;;3.85;1.65;;;25.40;99.90;;;;;;5087116;28;20024;-70
2021/08/15 10:32:55;;;;;;;6.28;1.73;;;25.40;99.90;;;;;;5087810;28;20123;-69
2021/08/15 10:35:31;;;;;;;4.13;1.60;;;25.50;99.90;;;;;;5077691;28;20036;-70
2021/08/15 10:38:05;;;;;;;5.03;1.38;;;25.70;99.90;;;;;;5077724;28;20056;-69
2021/08/15 10:40:40;;;;;;;4.43;1.40;;;25.80;99.30;;;;;;5087463;28;20055;-70
2021/08/15 10:43:36;;;;;;;5.47;1.30;;;25.80;99.30;;;;;;5083379;28;20040;-69
2021/08/15 10:46:07;;;;;;;5.70;2.33;;;26.00;99.20;;;;;;5087283;28;20047;-69
2021/08/15 10:49:08;;;;;;;4.63;1.23;;;25.80;99.70;;;;;;5087683;28;20177;-70
2021/08/15 10:51:45;;;;;;;4.95;1.23;;;25.70;99.70;;;;;;5077165;28;20028;-69
2021/08/15 10:54:55;;;;;;;5.28;1.48;;;25.40;99.90;;;;;;5084181;28;20024;-70
2021/08/15 10:57:47;;;;;;;2.17;0.93;;;25.30;99.90;;;;;;5085476;28;20044;-70
2021/08/15 11:00:28;;;;;;;3.65;1.05;;;25.30;99.90;;;;;;5071809;28;20035;-70
2021/08/15 11:02:58;;;;;;;5.00;1.23;;;25.40;99.90;;;;;;5086496;28;20047;-69
2021/08/15 11:05:35;;;;;;;7.10;1.60;;;25.30;99.90;;;;;;5074819;28;20047;-69
2021/08/15 11:08:00;;;;;;;7.22;1.38;;;25.20;99.90;;;;;;5085910;28;20035;-69
2021/08/15 11:11:02;;;;;;;4.32;1.35;;;25.20;99.90;;;;;;5077367;28;20036;-70
2021/08/15 11:13:31;;;;;;;4.07;1.10;;;25.40;99.90;;;;;;5086518;28;20032;-69
2021/08/15 11:16:25;;;;;;;4.50;1.52;;;25.40;99.90;;;;;;5087056;28;20021;-69
2021/08/15 11:19:14;;;;;;;3.83;1.00;;;25.50;99.90;;;;;;5085322;28;20028;-69
2021/08/15 11:22:04;;;;;;;2.15;0.98;;;25.70;99.90;;;;;;5066084;28;20020;-69
2021/08/15 11:24:45;;;;;;;1.60;0.75;;;25.90;99.90;;;;;;5077036;28;20400;-70
2021/08/15 11:27:22;;;;;;;2.17;0.50;;;26.00;99.90;;;;;;5083482;28;20028;-69
2021/08/15 11:29:48;;;;;;;6.32;0.98;;;26.00;99.90;;;;;;5087072;28;20059;-70
2021/08/15 11:32:17;;;;;;;4.35;0.70;;;26.00;99.90;;;;;;5087415;28;20035;-70
2021/08/15 11:35:01;;;;;;;1.58;0.70;;;25.80;99.90;;;;;;5087068;28;20032;-70
2021/08/15 11:37:30;;;;;;;3.03;0.80;;;25.80;99.90;;;;;;5086924;28;20038;-68
2021/08/15 11:39:56;;;;;;;2.38;1.15;;;25.70;99.90;;;;;;5077400;28;20032;-69
2021/08/15 11:42:24;;;;;;;2.35;0.73;;;25.80;99.90;;;;;;5087130;28;20450;-69
2021/08/15 11:44:55;;;;;;;3.22;0.80;;;25.70;99.90;;;;;;5077055;28;20093;-70
2021/08/15 11:47:27;;;;;;;3.55;0.88;;;25.80;99.90;;;;;;5086558;28;20055;-69
2021/08/15 11:49:55;;;;;;;2.38;0.70;;;26.00;99.90;;;;;;5086745;28;20039;-70
2021/08/15 11:52:26;;;;;;;3.40;1.00;;;26.10;99.90;;;;;;5088019;28;20036;-69
2021/08/15 11:54:53;;;;;;;3.28;1.08;;;26.10;99.90;;;;;;5077983;28;20028;-69
2021/08/15 11:57:20;;;;;;;2.25;0.68;;;26.00;99.90;;;;;;5074537;28;20032;-69
2021/08/15 11:59:59;;;;;;;2.05;0.80;;;26.00;99.90;;;;;;5090339;28;20032;-69
2021/08/15 12:02:25;;;;;;;1.03;0.47;;;25.80;99.90;;;;;;5089549;28;20149;-70
2021/08/15 12:04:50;;;;;;;3.80;1.17;;;25.60;99.90;;;;;;5089877;28;20399;-69
2021/08/15 12:07:21;;;;;;;1.85;0.73;;;25.50;99.90;;;;;;5090383;28;20034;-69
2021/08/15 12:09:47;;;;;;;3.40;0.70;;;25.50;99.90;;;;;;5090127;28;20027;-70
2021/08/15 12:12:13;;;;;;;3.03;0.73;;;25.50;99.90;;;;;;5075222;28;20032;-70
2021/08/15 12:14:42;;;;;;;3.08;0.70;;;25.60;99.90;;;;;;5089965;28;20148;-69
2021/08/15 12:17:09;;;;;;;2.78;1.17;;;25.60;99.90;;;;;;5090344;28;20052;-68
2021/08/15 12:19:35;;;;;;;3.03;0.95;;;25.80;99.90;;;;;;5090542;28;20021;-69
2021/08/15 12:22:14;;;;;;;3.58;1.02;;;25.90;99.90;;;;;;5090377;28;20056;-69
2021/08/15 12:24:40;;;;;;;2.03;0.80;;;25.90;99.90;;;;;;5090248;28;20055;-69
2021/08/15 12:27:07;;;;;;;2.55;0.80;;;25.80;99.90;;;;;;5076213;28;20028;-69
2021/08/15 12:29:42;;;;;;;3.45;0.95;;;25.70;99.90;;;;;;5083899;28;20074;-70
2021/08/15 12:32:19;;;;;;;2.90;0.85;;;25.70;99.90;;;;;;5087932;28;20377;-68
2021/08/15 12:34:53;;;;;;;2.70;1.00;;;25.80;99.90;;;;;;5085820;28;20051;-71
2021/08/15 12:37:25;;;;;;;3.80;1.00;;;25.70;99.90;;;;;;5087581;28;20127;-69
2021/08/15 12:40:14;;;;;;;2.28;1.35;;;25.60;99.90;;;;;;5077948;28;20047;-70
2021/08/15 12:42:52;;;;;;;1.40;0.50;;;25.50;99.90;;;;;;5084688;28;20028;-69
2021/08/15 12:45:32;;;;;;;3.20;0.70;;;25.40;99.90;;;;;;5087511;28;20044;-69
2021/08/15 12:48:01;;;;;;;2.30;0.73;;;25.50;99.90;;;;;;5082259;28;20438;-69
2021/08/15 12:50:27;;;;;;;7.60;0.82;;;25.50;99.90;;;;;;5087870;28;20674;-69